Time;durP1;ratioP1;P1;durP2;ratioP2;P2;SDS_P1;SDS_P2;PMS_P1;PMS_P2;Temp;Humidity;BMP_temperature;BMP_pressure;BME280_temperature;BME280_humidity;BME280_pressure;Samples;Min_cycle;Max_cycle;Signal;HPM_P1;HPM_P2
2023/08/19 00:01:12;;;;;;;;;;;;;;;;;;5007672;28;19961;-64
2023/08/19 00:03:37;;;;;;;;;;;;;;;;;;5017557;28;19925;-63
2023/08/19 00:06:02;;;;;;;;;;;;;;;;;;5009649;28;20438;-64
2023/08/19 00:08:27;;;;;;;;;;;;;;;;;;5015465;28;19917;-63
2023/08/19 00:10:53;;;;;;;;;;;;;;;;;;5010217;28;19933;-63
2023/08/19 00:13:18;;;;;;;;;;;;;;;;;;5008789;28;20321;-63
2023/08/19 00:15:43;;;;;;;;;;;;;;;;;;5012680;28;19921;-63
2023/08/19 00:18:09;;;;;;;;;;;;;;;;;;5006565;28;19975;-64
2023/08/19 00:20:34;;;;;;;;;;;;;;;;;;5002677;28;19921;-63
2023/08/19 00:22:59;;;;;;;;;;;;;;;;;;5004522;28;19918;-64
2023/08/19 00:25:25;;;;;;;;;;;;;;;;;;5038476;28;20035;-64
2023/08/19 00:27:50;;;;;;;;;;;;;;;;;;5044027;28;19956;-63
2023/08/19 00:30:15;;;;;;;;;;;;;;;;;;5036064;28;20372;-64
2023/08/19 00:32:41;;;;;;;;;;;;;;;;;;5041830;28;19917;-64
2023/08/19 00:35:06;;;;;;;;;;;;;;;;;;5042554;28;19925;-64
2023/08/19 00:37:32;;;;;;;;;;;;;;;;;;5045240;28;19928;-63
2023/08/19 00:39:57;;;;;;;;;;;;;;;;;;5043732;28;19939;-63
2023/08/19 00:42:22;;;;;;;;;;;;;;;;;;5040759;28;19931;-63
2023/08/19 00:44:47;;;;;;;;;;;;;;;;;;5036507;28;19928;-63
2023/08/19 00:47:12;;;;;;;;;;;;;;;;;;5042114;28;20008;-64
2023/08/19 00:49:38;;;;;;;;;;;;;;;;;;5041089;28;19999;-63
2023/08/19 00:52:03;;;;;;;;;;;;;;;;;;5044007;28;19929;-63
2023/08/19 00:54:29;;;;;;;;;;;;;;;;;;5037645;28;20359;-63
2023/08/19 00:56:54;;;;;;;;;;;;;;;;;;5041921;28;20372;-63
2023/08/19 00:59:19;;;;;;;;;;;;;;;;;;5041980;28;21758;-63
2023/08/19 01:01:44;;;;;;;;;;;;;;;;;;5044196;28;20394;-63
2023/08/19 01:04:09;;;;;;;;;;;;;;;;;;5044086;28;19935;-63
2023/08/19 01:06:34;;;;;;;;;;;;;;;;;;5040798;28;20471;-63
2023/08/19 01:08:59;;;;;;;;;;;;;;;;;;5043110;28;19917;-63
2023/08/19 01:11:25;;;;;;;;;;;;;;;;;;5044388;28;20369;-63
2023/08/19 01:13:50;;;;;;;;;;;;;;;;;;5040871;28;19924;-63
2023/08/19 01:16:15;;;;;;;;;;;;;;;;;;5038048;28;19917;-63
2023/08/19 01:18:40;;;;;;;;;;;;;;;;;;5047651;28;20863;-63
2023/08/19 01:21:06;;;;;;;;;;;;;;;;;;5046047;28;20422;-64
2023/08/19 01:23:31;;;;;;;;;;;;;;;;;;5044948;28;20453;-63
2023/08/19 01:25:56;;;;;;;;;;;;;;;;;;5040759;28;19920;-63
2023/08/19 01:28:21;;;;;;;;;;;;;;;;;;5043341;28;19924;-63
2023/08/19 01:30:46;;;;;;;;;;;;;;;;;;5041894;28;19960;-63
2023/08/19 01:33:11;;;;;;;;;;;;;;;;;;5041770;28;19929;-63
2023/08/19 01:35:36;;;;;;;;;;;;;;;;;;5042847;28;19917;-63
2023/08/19 01:38:02;;;;;;;;;;;;;;;;;;5040803;28;19925;-64
2023/08/19 01:40:27;;;;;;;;;;;;;;;;;;5040571;28;20365;-63
2023/08/19 01:42:54;;;;;;;;;;;;;;;;;;5046801;28;19978;-63
2023/08/19 01:45:19;;;;;;;;;;;;;;;;;;5044877;28;19967;-63
2023/08/19 01:47:45;;;;;;;;;;;;;;;;;;5044420;28;19952;-63
2023/08/19 01:50:10;;;;;;;;;;;;;;;;;;5051372;28;19926;-64
2023/08/19 01:52:35;;;;;;;;;;;;;;;;;;5050534;28;21296;-63
2023/08/19 01:55:01;;;;;;;;;;;;;;;;;;5046176;28;19924;-64
2023/08/19 01:57:27;;;;;;;;;;;;;;;;;;5044429;28;19921;-63
2023/08/19 01:59:52;;;;;;;;;;;;;;;;;;5047591;28;19923;-63
2023/08/19 02:02:17;;;;;;;;;;;;;;;;;;5046609;28;19917;-63
2023/08/19 02:04:42;;;;;;;;;;;;;;;;;;5042692;28;20269;-63
2023/08/19 02:07:08;;;;;;;;;;;;;;;;;;5047284;28;19917;-64
2023/08/19 02:09:33;;;;;;;;;;;;;;;;;;5047695;28;19925;-63
2023/08/19 02:11:58;;;;;;;;;;;;;;;;;;5042505;28;20277;-63
2023/08/19 02:14:24;;;;;;;;;;;;;;;;;;5045651;28;19921;-63
2023/08/19 02:16:49;;;;;;;;;;;;;;;;;;5047625;28;19932;-63
2023/08/19 02:19:14;;;;;;;;;;;;;;;;;;5044162;28;19995;-63
2023/08/19 02:21:39;;;;;;;;;;;;;;;;;;5044652;28;21371;-63
2023/08/19 02:24:04;;;;;;;;;;;;;;;;;;5046987;28;19928;-64
2023/08/19 02:26:29;;;;;;;;;;;;;;;;;;5046394;28;20246;-63
2023/08/19 02:28:55;;;;;;;;;;;;;;;;;;5042036;28;19932;-63
2023/08/19 02:31:20;;;;;;;;;;;;;;;;;;5046484;28;19939;-63
2023/08/19 02:33:45;;;;;;;;;;;;;;;;;;5044936;28;19917;-63
2023/08/19 02:36:10;;;;;;;;;;;;;;;;;;5042723;28;19966;-64
2023/08/19 02:38:35;;;;;;;;;;;;;;;;;;5045938;28;19921;-63
2023/08/19 02:41:00;;;;;;;;;;;;;;;;;;5045884;28;20008;-64
2023/08/19 02:43:25;;;;;;;;;;;;;;;;;;5044712;28;19921;-63
2023/08/19 02:45:53;;;;;;;;;;;;;;;;;;5043216;28;19920;-63
2023/08/19 02:48:18;;;;;;;;;;;;;;;;;;5045497;28;19917;-63
2023/08/19 02:50:43;;;;;;;;;;;;;;;;;;5046934;28;19929;-63
2023/08/19 02:53:08;;;;;;;;;;;;;;;;;;5040466;28;20284;-63
2023/08/19 02:55:33;;;;;;;;;;;;;;;;;;5046567;28;19917;-63
2023/08/19 02:57:59;;;;;;;;;;;;;;;;;;5046677;28;19983;-63
2023/08/19 03:00:25;;;;;;;;;;;;;;;;;;5042062;28;20011;-63
2023/08/19 03:02:50;;;;;;;;;;;;;;;;;;5044983;28;20054;-63
2023/08/19 03:05:15;;;;;;;;;;;;;;;;;;5045937;28;19921;-63
2023/08/19 03:07:40;;;;;;;;;;;;;;;;;;5044526;28;19917;-63
2023/08/19 03:10:05;;;;;;;;;;;;;;;;;;5049455;28;19932;-63
2023/08/19 03:12:31;;;;;;;;;;;;;;;;;;5052409;28;19920;-63
2023/08/19 03:14:56;;;;;;;;;;;;;;;;;;5051260;28;20003;-63
2023/08/19 03:17:21;;;;;;;;;;;;;;;;;;5051873;28;19920;-64
2023/08/19 03:19:46;;;;;;;;;;;;;;;;;;5052273;28;20276;-63
2023/08/19 03:22:11;;;;;;;;;;;;;;;;;;5051008;28;19943;-64
2023/08/19 03:24:36;;;;;;;;;;;;;;;;;;5052308;28;19919;-63
2023/08/19 03:27:02;;;;;;;;;;;;;;;;;;5050492;28;19966;-63
2023/08/19 03:29:27;;;;;;;;;;;;;;;;;;5045581;28;19920;-63
2023/08/19 03:31:52;;;;;;;;;;;;;;;;;;5031744;28;19921;-63
2023/08/19 03:34:17;;;;;;;;;;;;;;;;;;5031715;28;20379;-63
2023/08/19 03:36:42;;;;;;;;;;;;;;;;;;5031273;28;19920;-63
2023/08/19 03:39:07;;;;;;;;;;;;;;;;;;5031659;28;19913;-63
2023/08/19 03:41:32;;;;;;;;;;;;;;;;;;5031639;28;20357;-64
2023/08/19 03:43:58;;;;;;;;;;;;;;;;;;5031102;28;19914;-63
2023/08/19 03:46:23;;;;;;;;;;;;;;;;;;5031186;28;19913;-63
2023/08/19 03:48:48;;;;;;;;;;;;;;;;;;5031816;28;19913;-63
2023/08/19 03:51:13;;;;;;;;;;;;;;;;;;5030844;28;20007;-64
2023/08/19 03:53:38;;;;;;;;;;;;;;;;;;5020650;28;19928;-63
2023/08/19 03:56:03;;;;;;;;;;;;;;;;;;5001471;28;19914;-63
2023/08/19 03:58:29;;;;;;;;;;;;;;;;;;5012887;28;19996;-63
2023/08/19 04:00:54;;;;;;;;;;;;;;;;;;5021505;28;19924;-63
2023/08/19 04:03:19;;;;;;;;;;;;;;;;;;5005294;28;20420;-63
2023/08/19 04:05:44;;;;;;;;;;;;;;;;;;5020898;28;19913;-63
2023/08/19 04:08:09;;;;;;;;;;;;;;;;;;5021441;28;19920;-64
2023/08/19 04:10:34;;;;;;;;;;;;;;;;;;5008669;28;20613;-63
2023/08/19 04:13:00;;;;;;;;;;;;;;;;;;4994919;28;19917;-63
2023/08/19 04:15:25;;;;;;;;;;;;;;;;;;4993816;28;20316;-64
2023/08/19 04:17:50;;;;;;;;;;;;;;;;;;5000578;28;20330;-63
2023/08/19 04:20:15;;;;;;;;;;;;;;;;;;5001693;28;20315;-64
2023/08/19 04:22:40;;;;;;;;;;;;;;;;;;5002468;28;19925;-63
2023/08/19 04:25:06;;;;;;;;;;;;;;;;;;5001198;28;20012;-64
2023/08/19 04:27:31;;;;;;;;;;;;;;;;;;5006310;28;19924;-64
2023/08/19 04:29:56;;;;;;;;;;;;;;;;;;5012252;28;20313;-63
2023/08/19 04:32:21;;;;;;;;;;;;;;;;;;4996460;28;20521;-63
2023/08/19 04:34:46;;;;;;;;;;;;;;;;;;4994690;28;19925;-63
2023/08/19 04:37:12;;;;;;;;;;;;;;;;;;5002209;28;20504;-63
2023/08/19 04:39:37;;;;;;;;;;;;;;;;;;5004503;28;19921;-63
2023/08/19 04:42:02;;;;;;;;;;;;;;;;;;5014369;28;20349;-64
2023/08/19 04:44:27;;;;;;;;;;;;;;;;;;5015110;28;19916;-63
2023/08/19 04:46:53;;;;;;;;;;;;;;;;;;5008724;28;20012;-63
2023/08/19 04:49:18;;;;;;;;;;;;;;;;;;5011231;28;19918;-64
2023/08/19 04:51:43;;;;;;;;;;;;;;;;;;5011525;28;20019;-63
2023/08/19 04:54:09;;;;;;;;;;;;;;;;;;5011341;28;19932;-64
2023/08/19 04:56:34;;;;;;;;;;;;;;;;;;5007739;28;20466;-63
2023/08/19 04:59:00;;;;;;;;;;;;;;;;;;5011033;28;20491;-63
2023/08/19 05:01:25;;;;;;;;;;;;;;;;;;5006081;28;22582;-63
2023/08/19 05:03:50;;;;;;;;;;;;;;;;;;5014540;28;19929;-63
2023/08/19 05:06:15;;;;;;;;;;;;;;;;;;5017033;28;19925;-63
2023/08/19 05:08:41;;;;;;;;;;;;;;;;;;5013085;28;20471;-63
2023/08/19 05:11:06;;;;;;;;;;;;;;;;;;5013100;28;19929;-64
2023/08/19 05:13:31;;;;;;;;;;;;;;;;;;5014995;28;20024;-63
2023/08/19 05:15:57;;;;;;;;;;;;;;;;;;5016129;28;19921;-63
2023/08/19 05:18:22;;;;;;;;;;;;;;;;;;5005064;28;19923;-63
2023/08/19 05:20:47;;;;;;;;;;;;;;;;;;5012926;28;20289;-63
2023/08/19 05:23:12;;;;;;;;;;;;;;;;;;5038265;28;20060;-64
2023/08/19 05:25:37;;;;;;;;;;;;;;;;;;5048072;28;19917;-64
2023/08/19 05:28:03;;;;;;;;;;;;;;;;;;5047116;28;19996;-65
2023/08/19 05:30:28;;;;;;;;;;;;;;;;;;5043835;28;19982;-64
2023/08/19 05:32:53;;;;;;;;;;;;;;;;;;5047069;28;19917;-65
2023/08/19 05:35:18;;;;;;;;;;;;;;;;;;5046979;28;19921;-67
2023/08/19 05:37:43;;;;;;;;;;;;;;;;;;5044186;28;19944;-64
2023/08/19 05:40:08;;;;;;;;;;;;;;;;;;5042089;28;19925;-65
2023/08/19 05:42:34;;;;;;;;;;;;;;;;;;5037032;28;20003;-65
2023/08/19 05:44:59;;;;;;;;;;;;;;;;;;5037598;28;19921;-65
2023/08/19 05:47:24;;;;;;;;;;;;;;;;;;5041125;28;19924;-65
2023/08/19 05:49:49;;;;;;;;;;;;;;;;;;5036049;28;20413;-65
2023/08/19 05:52:14;;;;;;;;;;;;;;;;;;5044002;28;19921;-65
2023/08/19 05:54:39;;;;;;;;;;;;;;;;;;5041178;28;19923;-65
2023/08/19 05:57:05;;;;;;;;;;;;;;;;;;5037282;28;21058;-66
2023/08/19 05:59:30;;;;;;;;;;;;;;;;;;5043042;28;19952;-65
2023/08/19 06:01:55;;;;;;;;;;;;;;;;;;5040165;28;19921;-65
2023/08/19 06:04:20;;;;;;;;;;;;;;;;;;5038114;28;19925;-66
2023/08/19 06:06:45;;;;;;;;;;;;;;;;;;5038451;28;19922;-65
2023/08/19 06:09:10;;;;;;;;;;;;;;;;;;5036953;28;20357;-66
2023/08/19 06:11:36;;;;;;;;;;;;;;;;;;5039577;28;19929;-66
2023/08/19 06:14:01;;;;;;;;;;;;;;;;;;5038686;28;19920;-66
2023/08/19 06:16:26;;;;;;;;;;;;;;;;;;5037545;28;20440;-65
2023/08/19 06:18:51;;;;;;;;;;;;;;;;;;5040415;28;19928;-65
2023/08/19 06:21:17;;;;;;;;;;;;;;;;;;5036244;28;19917;-65
2023/08/19 06:23:42;;;;;;;;;;;;;;;;;;5038194;28;19923;-65
2023/08/19 06:26:07;;;;;;;;;;;;;;;;;;5037694;28;19917;-66
2023/08/19 06:28:32;;;;;;;;;;;;;;;;;;5038468;28;20023;-65
2023/08/19 06:30:58;;;;;;;;;;;;;;;;;;5036553;28;19968;-65
2023/08/19 06:33:23;;;;;;;;;;;;;;;;;;5036829;28;19921;-64
2023/08/19 06:35:48;;;;;;;;;;;;;;;;;;5041849;28;19986;-65
2023/08/19 06:38:13;;;;;;;;;;;;;;;;;;5045129;28;20003;-65
2023/08/19 06:40:38;;;;;;;;;;;;;;;;;;5053498;28;19912;-65
2023/08/19 06:43:03;;;;;;;;;;;;;;;;;;5043047;28;19925;-66
2023/08/19 06:45:29;;;;;;;;;;;;;;;;;;5043315;28;19924;-65
2023/08/19 06:47:54;;;;;;;;;;;;;;;;;;5045848;28;19916;-65
2023/08/19 06:50:19;;;;;;;;;;;;;;;;;;5042447;28;19925;-65
2023/08/19 06:52:44;;;;;;;;;;;;;;;;;;5045187;28;19921;-65
2023/08/19 06:55:09;;;;;;;;;;;;;;;;;;5046387;28;20369;-65
2023/08/19 06:57:34;;;;;;;;;;;;;;;;;;5042381;28;19923;-65
2023/08/19 06:59:59;;;;;;;;;;;;;;;;;;5045625;28;20265;-65
2023/08/19 07:02:25;;;;;;;;;;;;;;;;;;5046225;28;20020;-65
2023/08/19 07:04:50;;;;;;;;;;;;;;;;;;5043632;28;20292;-65
2023/08/19 07:07:21;;;;;;;;;;;;;;;;;;5043179;28;19925;-66
2023/08/19 07:09:46;;;;;;;;;;;;;;;;;;5046625;28;19972;-65
2023/08/19 07:12:12;;;;;;;;;;;;;;;;;;5045520;28;19953;-65
2023/08/19 07:14:38;;;;;;;;;;;;;;;;;;5041025;28;20020;-65
2023/08/19 07:17:03;;;;;;;;;;;;;;;;;;5045479;28;20392;-66
2023/08/19 07:19:28;;;;;;;;;;;;;;;;;;5046137;28;19925;-65
2023/08/19 07:21:53;;;;;;;;;;;;;;;;;;5042346;28;19928;-65
2023/08/19 07:24:18;;;;;;;;;;;;;;;;;;5044321;28;19944;-66
2023/08/19 07:26:44;;;;;;;;;;;;;;;;;;5045966;28;19924;-65
2023/08/19 07:29:10;;;;;;;;;;;;;;;;;;5039578;28;19917;-65
2023/08/19 07:31:35;;;;;;;;;;;;;;;;;;5039269;28;19931;-65
2023/08/19 07:34:00;;;;;;;;;;;;;;;;;;5045516;28;20376;-65
2023/08/19 07:36:25;;;;;;;;;;;;;;;;;;5045331;28;19924;-65
2023/08/19 07:38:50;;;;;;;;;;;;;;;;;;5041240;28;19927;-65
2023/08/19 07:41:15;;;;;;;;;;;;;;;;;;5045421;28;19916;-65
2023/08/19 07:43:42;;;;;;;;;;;;;;;;;;5039115;28;19975;-66
2023/08/19 07:46:07;;;;;;;;;;;;;;;;;;5041987;28;19917;-66
2023/08/19 07:48:32;;;;;;;;;;;;;;;;;;5043686;28;19932;-65
2023/08/19 07:50:57;;;;;;;;;;;;;;;;;;5045267;28;20003;-65
2023/08/19 07:53:22;;;;;;;;;;;;;;;;;;5043943;28;19916;-65
2023/08/19 07:55:47;;;;;;;;;;;;;;;;;;5041921;28;19925;-65
2023/08/19 07:58:12;;;;;;;;;;;;;;;;;;5044930;28;19944;-65
2023/08/19 08:00:38;;;;;;;;;;;;;;;;;;5045740;28;19996;-65
2023/08/19 08:03:03;;;;;;;;;;;;;;;;;;5039806;28;19932;-66
2023/08/19 08:05:28;;;;;;;;;;;;;;;;;;5045207;28;19920;-65
2023/08/19 08:07:53;;;;;;;;;;;;;;;;;;5045430;28;19967;-65
2023/08/19 08:10:18;;;;;;;;;;;;;;;;;;5041449;28;19950;-65
2023/08/19 08:12:43;;;;;;;;;;;;;;;;;;5043667;28;19951;-65
2023/08/19 08:15:09;;;;;;;;;;;;;;;;;;5045050;28;19940;-65
2023/08/19 08:17:35;;;;;;;;;;;;;;;;;;5042824;28;19917;-65
2023/08/19 08:20:00;;;;;;;;;;;;;;;;;;5041196;28;20042;-65
2023/08/19 08:22:25;;;;;;;;;;;;;;;;;;5044920;28;20307;-65
2023/08/19 08:24:50;;;;;;;;;;;;;;;;;;5045073;28;19962;-65
2023/08/19 08:27:15;;;;;;;;;;;;;;;;;;5041320;28;19917;-65
2023/08/19 08:29:40;;;;;;;;;;;;;;;;;;5048659;28;19917;-65
2023/08/19 08:32:06;;;;;;;;;;;;;;;;;;5046077;28;20015;-66
2023/08/19 08:34:31;;;;;;;;;;;;;;;;;;5046800;28;19917;-67
2023/08/19 08:36:56;;;;;;;;;;;;;;;;;;5046808;28;19925;-66
2023/08/19 08:39:21;;;;;;;;;;;;;;;;;;5048265;28;20361;-65
2023/08/19 08:41:46;;;;;;;;;;;;;;;;;;5048541;28;19970;-65
2023/08/19 08:44:11;;;;;;;;;;;;;;;;;;5044511;28;19932;-65
2023/08/19 08:46:37;;;;;;;;;;;;;;;;;;5048108;28;19966;-65
2023/08/19 08:49:02;;;;;;;;;;;;;;;;;;5048910;28;19940;-66
2023/08/19 08:51:27;;;;;;;;;;;;;;;;;;5044633;28;19933;-65
2023/08/19 08:53:52;;;;;;;;;;;;;;;;;;5047809;28;19967;-65
2023/08/19 08:56:17;;;;;;;;;;;;;;;;;;5048900;28;20273;-65
2023/08/19 08:58:43;;;;;;;;;;;;;;;;;;5046385;28;19960;-65
2023/08/19 09:01:08;;;;;;;;;;;;;;;;;;5045650;28;19928;-65
2023/08/19 09:03:33;;;;;;;;;;;;;;;;;;5048712;28;19924;-65
2023/08/19 09:05:59;;;;;;;;;;;;;;;;;;5046493;28;19999;-65
2023/08/19 09:08:24;;;;;;;;;;;;;;;;;;5043801;28;19917;-65
2023/08/19 09:10:49;;;;;;;;;;;;;;;;;;5048526;28;19925;-65
2023/08/19 09:13:14;;;;;;;;;;;;;;;;;;5047517;28;20470;-65
2023/08/19 09:15:39;;;;;;;;;;;;;;;;;;5044795;28;19996;-65
2023/08/19 09:18:04;;;;;;;;;;;;;;;;;;5047055;28;19917;-66
2023/08/19 09:20:30;;;;;;;;;;;;;;;;;;5048209;28;19925;-65
2023/08/19 09:22:55;;;;;;;;;;;;;;;;;;5046133;28;20277;-65
2023/08/19 09:25:20;;;;;;;;;;;;;;;;;;5045321;28;19925;-65
2023/08/19 09:27:46;;;;;;;;;;;;;;;;;;5047998;28;19952;-65
2023/08/19 09:30:11;;;;;;;;;;;;;;;;;;5047046;28;20007;-65
2023/08/19 09:32:36;;;;;;;;;;;;;;;;;;5042585;28;19925;-65
2023/08/19 09:35:02;;;;;;;;;;;;;;;;;;5047163;28;20426;-65
2023/08/19 09:37:27;;;;;;;;;;;;;;;;;;5047955;28;20026;-65
2023/08/19 09:39:53;;;;;;;;;;;;;;;;;;5042479;28;19924;-65
2023/08/19 09:42:19;;;;;;;;;;;;;;;;;;5045874;28;20292;-65
2023/08/19 09:44:44;;;;;;;;;;;;;;;;;;5046827;28;19925;-65
2023/08/19 09:47:09;;;;;;;;;;;;;;;;;;5046004;28;19996;-66
2023/08/19 09:49:34;;;;;;;;;;;;;;;;;;5044357;28;20379;-65
2023/08/19 09:51:59;;;;;;;;;;;;;;;;;;5047929;28;19970;-67
2023/08/19 09:54:25;;;;;;;;;;;;;;;;;;5047283;28;19932;-65
2023/08/19 09:56:50;;;;;;;;;;;;;;;;;;5042507;28;19924;-64
2023/08/19 09:59:15;;;;;;;;;;;;;;;;;;5047237;28;19920;-65
2023/08/19 10:01:40;;;;;;;;;;;;;;;;;;5044621;28;20019;-65
2023/08/19 10:04:05;;;;;;;;;;;;;;;;;;5041095;28;19978;-66
2023/08/19 10:06:31;;;;;;;;;;;;;;;;;;5038984;28;19916;-65
2023/08/19 10:08:56;;;;;;;;;;;;;;;;;;5038827;28;19925;-65
2023/08/19 10:11:21;;;;;;;;;;;;;;;;;;5036723;28;20323;-65
2023/08/19 10:13:46;;;;;;;;;;;;;;;;;;5040702;28;19917;-65
2023/08/19 10:16:11;;;;;;;;;;;;;;;;;;5041771;28;20019;-65
2023/08/19 10:18:36;;;;;;;;;;;;;;;;;;5037236;28;19933;-65
2023/08/19 10:21:04;;;;;;;;;;;;;;;;;;5041996;28;21303;-66
2023/08/19 10:23:29;;;;;;;;;;;;;;;;;;5046198;28;20438;-65
2023/08/19 10:25:54;;;;;;;;;;;;;;;;;;5047313;28;19924;-64
2023/08/19 10:28:20;;;;;;;;;;;;;;;;;;5035866;28;20307;-65
2023/08/19 10:31:48;;;;;;;;;;;;;;;;;;5067223;27;19921;-65
2023/08/19 10:34:13;;;;;;;;;;;;;;;;;;5058098;28;19917;-65
2023/08/19 10:36:39;;;;;;;;;;;;;;;;;;5055114;28;19925;-65
2023/08/19 10:39:07;;;;;;;;;;;;;;;;;;5056677;28;19925;-65
2023/08/19 10:41:35;;;;;;;;;;;;;;;;;;5066988;28;20391;-65
2023/08/19 10:44:00;;;;;;;;;;;;;;;;;;5071817;28;19979;-65
2023/08/19 10:46:26;;;;;;;;;;;;;;;;;;5072990;28;19920;-65
2023/08/19 10:48:51;;;;;;;;;;;;;;;;;;5072629;28;19917;-65
2023/08/19 10:51:16;;;;;;;;;;;;;;;;;;5062451;28;20029;-65
2023/08/19 10:53:41;;;;;;;;;;;;;;;;;;5063446;28;19924;-64
2023/08/19 10:56:06;;;;;;;;;;;;;;;;;;5070049;28;19917;-65
2023/08/19 10:58:31;;;;;;;;;;;;;;;;;;5078875;28;19925;-64
2023/08/19 11:00:57;;;;;;;;;;;;;;;;;;5082065;28;20007;-65
2023/08/19 11:03:22;;;;;;;;;;;;;;;;;;5070721;28;19970;-65
2023/08/19 11:05:47;;;;;;;;;;;;;;;;;;5059236;28;19925;-64
2023/08/19 11:08:12;;;;;;;;;;;;;;;;;;5062781;28;19920;-65
2023/08/19 11:10:37;;;;;;;;;;;;;;;;;;5063257;28;19928;-64
2023/08/19 11:13:02;;;;;;;;;;;;;;;;;;5059305;28;20016;-65
2023/08/19 11:15:27;;;;;;;;;;;;;;;;;;5062184;28;19920;-64
2023/08/19 11:17:53;;;;;;;;;;;;;;;;;;5063057;28;20342;-64
2023/08/19 11:20:18;;;;;;;;;;;;;;;;;;5059739;28;19917;-64
2023/08/19 11:22:43;;;;;;;;;;;;;;;;;;5060604;28;19944;-64
2023/08/19 11:25:09;;;;;;;;;;;;;;;;;;5062590;28;19917;-64
2023/08/19 11:27:34;;;;;;;;;;;;;;;;;;5061552;28;19916;-64
2023/08/19 11:30:00;;;;;;;;;;;;;;;;;;5064261;28;19935;-64
2023/08/19 11:32:29;;;;;;;;;;;;;;;;;;5088450;28;20382;-64
2023/08/19 11:34:54;;;;;;;;;;;;;;;;;;5081016;28;20031;-64
2023/08/19 11:37:20;;;;;;;;;;;;;;;;;;5077838;28;20011;-64
2023/08/19 11:39:45;;;;;;;;;;;;;;;;;;5078802;28;19921;-64
2023/08/19 11:42:10;;;;;;;;;;;;;;;;;;5071821;28;19916;-64
2023/08/19 11:44:36;;;;;;;;;;;;;;;;;;5063979;28;19925;-64
2023/08/19 11:47:01;;;;;;;;;;;;;;;;;;5060852;28;19917;-65
2023/08/19 11:49:26;;;;;;;;;;;;;;;;;;5066231;28;19920;-64
2023/08/19 11:51:51;;;;;;;;;;;;;;;;;;5067740;28;20394;-64
2023/08/19 11:54:17;;;;;;;;;;;;;;;;;;5064433;28;19917;-64
2023/08/19 11:56:42;;;;;;;;;;;;;;;;;;5086953;28;19974;-64
2023/08/19 11:59:07;;;;;;;;;;;;;;;;;;5087453;28;19924;-65
2023/08/19 12:01:32;;;;;;;;;;;;;;;;;;5073151;28;19960;-64
2023/08/19 12:03:57;;;;;;;;;;;;;;;;;;5066900;28;19928;-64
2023/08/19 12:06:22;;;;;;;;;;;;;;;;;;5068788;28;20447;-64
2023/08/19 12:08:48;;;;;;;;;;;;;;;;;;5067492;28;20375;-64
2023/08/19 12:11:13;;;;;;;;;;;;;;;;;;5065160;28;19975;-64
2023/08/19 12:13:38;;;;;;;;;;;;;;;;;;5068568;28;19966;-64
2023/08/19 12:16:03;;;;;;;;;;;;;;;;;;5083344;28;19916;-64
2023/08/19 12:18:29;;;;;;;;;;;;;;;;;;5083647;28;20008;-64
2023/08/19 12:20:54;;;;;;;;;;;;;;;;;;5080455;28;19955;-63
2023/08/19 12:23:19;;;;;;;;;;;;;;;;;;5049694;28;22204;-64
2023/08/19 12:25:44;;;;;;;;;;;;;;;;;;5079670;28;19955;-64
2023/08/19 12:28:09;;;;;;;;;;;;;;;;;;5092754;28;19993;-64
2023/08/19 12:30:35;;;;;;;;;;;;;;;;;;5084932;28;19977;-64
2023/08/19 12:33:00;;;;;;;;;;;;;;;;;;5049733;28;20832;-64
2023/08/19 12:56:13;;;;;;;;;;;;;;;;;;5007965;27;2020701;-65
2023/08/19 12:58:38;;;;;;;;;;;;;;;;;;5083845;28;20268;-65
2023/08/19 13:01:04;;;;;;;;;;;;;;;;;;5085917;28;19920;-65
